Time;durP1;ratioP1;P1;durP2;ratioP2;P2;SDS_P1;SDS_P2;PMS_P1;PMS_P2;Temp;Humidity;BMP_temperature;BMP_pressure;BME280_temperature;BME280_humidity;BME280_pressure;Samples;Min_cycle;Max_cycle;Signal;HPM_P1;HPM_P2
2021/06/03 11:45:43;;;;;;;8.83;6.40;;;25.50;1.00;;;;;;5883434;22;1905339;-70
2021/06/03 11:48:12;;;;;;;6.83;6.20;;;25.40;1.00;;;;;;5993371;22;20607;-68
2021/06/03 11:50:45;;;;;;;7.13;6.23;;;25.40;1.00;;;;;;5958629;22;20806;-70
2021/06/03 11:53:17;;;;;;;8.40;6.50;;;25.40;1.00;;;;;;5928306;22;20794;-67
2021/06/03 11:55:47;;;;;;;8.53;6.47;;;25.30;1.00;;;;;;5987776;22;20771;-68
2021/06/03 11:58:37;;;;;;;9.10;6.80;;;25.20;1.00;;;;;;5980116;22;20389;-68
2021/06/03 12:01:15;;;;;;;7.50;6.80;;;24.90;1.00;;;;;;6014448;22;20373;-67
2021/06/03 12:03:42;;;;;;;9.50;6.60;;;24.80;1.00;;;;;;5961352;22;20389;-67
2021/06/03 12:06:16;;;;;;;8.43;7.33;;;24.90;1.00;;;;;;5994673;22;20373;-72
2021/06/03 12:08:52;;;;;;;9.53;6.90;;;25.10;1.00;;;;;;5991854;22;20748;-69
2021/06/03 12:11:44;;;;;;;7.77;6.87;;;25.10;1.00;;;;;;6012226;22;20878;-66
2021/06/03 12:14:32;;;;;;;8.43;6.67;;;25.10;1.00;;;;;;5987584;22;20691;-69
2021/06/03 12:17:04;;;;;;;9.93;8.57;;;25.20;1.00;;;;;;6005702;22;20368;-66
2021/06/03 12:19:41;;;;;;;8.40;7.60;;;25.30;1.00;;;;;;5947879;22;20909;-68
2021/06/03 12:22:10;;;;;;;11.43;7.60;;;25.40;1.00;;;;;;5938821;22;20396;-66
2021/06/03 12:24:43;;;;;;;9.07;6.67;;;25.10;1.00;;;;;;5970064;22;20381;-62
2021/06/03 12:27:28;;;;;;;6.50;6.03;;;24.90;1.00;;;;;;5964486;22;20853;-64
2021/06/03 12:30:09;;;;;;;7.27;6.67;;;24.80;1.00;;;;;;5954773;22;20400;-68
2021/06/03 12:32:35;;;;;;;7.77;6.70;;;24.80;1.00;;;;;;5961975;22;20400;-68
2021/06/03 12:35:01;;;;;;;7.03;6.20;;;24.80;1.00;;;;;;5970426;22;20823;-70
2021/06/03 12:37:33;;;;;;;11.77;6.37;;;25.00;1.00;;;;;;5959735;22;20821;-67
2021/06/03 12:40:02;;;;;;;11.00;6.53;;;24.90;1.00;;;;;;5957342;22;20429;-70
2021/06/03 12:42:30;;;;;;;6.90;6.30;;;25.00;1.00;;;;;;5942911;22;20758;-68
2021/06/03 12:45:04;;;;;;;7.40;6.70;;;25.00;2.50;;;;;;5994947;22;20723;-63
2021/06/03 12:47:33;;;;;;;7.10;6.50;;;25.00;1.00;;;;;;5993840;22;20503;-64
2021/06/03 12:50:07;;;;;;;7.43;6.80;;;25.00;7.40;;;;;;5943768;22;20799;-66
2021/06/03 12:52:33;;;;;;;7.17;6.47;;;25.20;1.00;;;;;;5987501;22;20951;-64
2021/06/03 12:55:00;;;;;;;6.90;6.20;;;25.20;9.40;;;;;;5977837;22;21332;-69
2021/06/03 12:57:27;;;;;;;6.97;6.27;;;25.20;1.00;;;;;;5947311;22;20475;-66
2021/06/03 12:59:56;;;;;;;7.40;6.57;;;25.30;1.00;;;;;;5984207;22;20645;-66
2021/06/03 13:02:31;;;;;;;7.97;6.70;;;25.60;1.00;;;;;;5983015;22;21219;-68
2021/06/03 13:04:57;;;;;;;9.20;6.93;;;25.90;1.00;;;;;;5935745;22;20446;-67
2021/06/03 13:07:31;;;;;;;8.93;8.00;;;26.10;1.00;;;;;;5929493;22;20825;-66
2021/06/03 13:10:03;;;;;;;7.23;5.60;;;25.50;1.00;;;;;;5942949;22;20653;-67
2021/06/03 13:12:29;;;;;;;7.07;6.27;;;25.40;1.00;;;;;;5987343;22;20474;-68
2021/06/03 13:14:57;;;;;;;7.03;6.33;;;25.50;1.00;;;;;;5930127;22;20397;-69
2021/06/03 13:17:34;;;;;;;8.53;6.30;;;26.00;1.00;;;;;;5944427;22;20785;-66
2021/06/03 13:19:59;;;;;;;6.70;6.10;;;26.50;1.00;;;;;;5962338;22;20783;-66
2021/06/03 13:22:30;;;;;;;6.07;5.63;;;26.50;1.00;;;;;;5968981;22;21007;-66
2021/06/03 13:24:56;;;;;;;6.40;5.90;;;25.90;1.00;;;;;;5915332;22;20208;-65
2021/06/03 13:27:25;;;;;;;16.30;7.20;;;26.10;1.00;;;;;;5923228;22;20393;-66
2021/06/03 13:29:57;;;;;;;7.37;6.77;;;26.50;1.00;;;;;;5939212;22;20815;-66
2021/06/03 13:32:26;;;;;;;6.07;5.57;;;26.30;1.00;;;;;;5931990;22;20389;-66
2021/06/03 13:35:00;;;;;;;8.40;7.17;;;26.10;1.00;;;;;;5964446;22;20794;-66
2021/06/03 13:37:32;;;;;;;8.00;6.17;;;25.90;1.00;;;;;;5964781;22;20830;-64
2021/06/03 13:40:00;;;;;;;8.37;6.57;;;25.90;1.00;;;;;;5922085;22;20491;-65
2021/06/03 13:42:39;;;;;;;7.20;6.50;;;25.70;53.20;;;;;;5979852;22;20741;-66
2021/06/03 13:45:11;;;;;;;6.77;6.17;;;25.90;1.00;;;;;;5910436;22;20842;-68
2021/06/03 13:47:38;;;;;;;8.07;7.03;;;26.00;1.00;;;;;;5928881;22;20388;-66
2021/06/03 13:50:15;;;;;;;7.17;6.53;;;26.00;1.00;;;;;;5986352;22;20451;-64
2021/06/03 13:52:50;;;;;;;7.60;6.80;;;26.10;1.00;;;;;;5922667;22;20389;-66
2021/06/03 13:55:28;;;;;;;8.70;6.87;;;26.00;1.00;;;;;;5937247;22;20373;-66
2021/06/03 13:57:56;;;;;;;8.57;7.60;;;26.20;1.00;;;;;;5929969;22;20452;-66
2021/06/03 14:00:34;;;;;;;7.10;5.93;;;25.90;1.00;;;;;;5919146;22;20429;-64
2021/06/03 14:03:11;;;;;;;8.13;7.37;;;25.50;1.00;;;;;;5938762;22;20894;-64
2021/06/03 14:05:40;;;;;;;8.37;6.97;;;25.20;11.30;;;;;;5928932;22;20403;-67
2021/06/03 14:08:15;;;;;;;7.47;6.77;;;25.10;77.50;;;;;;5930703;22;20926;-66
2021/06/03 14:11:37;;;;;;;7.13;6.43;;;25.10;96.70;;;;;;5936472;22;20694;-67
2021/06/03 14:14:10;;;;;;;6.83;6.03;;;25.20;99.90;;;;;;5941861;22;20672;-68
2021/06/03 14:16:37;;;;;;;7.17;6.43;;;25.20;99.90;;;;;;5940877;22;20810;-67
2021/06/03 14:19:16;;;;;;;7.93;5.70;;;25.20;86.00;;;;;;5970653;22;20423;-68
2021/06/03 14:22:09;;;;;;;7.00;6.40;;;25.30;28.00;;;;;;5937674;22;21046;-68
2021/06/03 14:24:40;;;;;;;6.77;6.17;;;25.20;73.60;;;;;;5928864;22;20393;-67
2021/06/03 14:27:38;;;;;;;7.33;6.37;;;25.40;85.00;;;;;;5932355;22;20932;-66
2021/06/03 14:30:10;;;;;;;7.30;6.47;;;25.60;13.40;;;;;;5974900;22;20567;-67
2021/06/03 14:32:46;;;;;;;7.00;5.90;;;25.60;15.20;;;;;;5969242;22;20502;-66
2021/06/03 14:35:14;;;;;;;6.90;6.20;;;25.50;1.00;;;;;;5935360;22;20776;-67
2021/06/03 14:37:41;;;;;;;5.60;5.17;;;25.30;99.90;;;;;;5976429;22;20682;-67
2021/06/03 14:40:14;;;;;;;6.20;5.70;;;25.20;91.40;;;;;;5976043;22;20820;-67
2021/06/03 14:42:51;;;;;;;6.17;5.57;;;25.50;3.00;;;;;;5918368;22;20722;-68
2021/06/03 14:45:23;;;;;;;6.83;5.87;;;25.40;1.00;;;;;;5926912;22;20850;-67
2021/06/03 14:47:50;;;;;;;7.23;6.50;;;25.30;20.30;;;;;;5931603;22;20797;-68
2021/06/03 14:50:21;;;;;;;6.20;5.70;;;25.60;1.00;;;;;;5928864;22;20466;-67
2021/06/03 14:52:51;;;;;;;6.73;6.17;;;25.70;1.00;;;;;;5924761;22;20865;-64
2021/06/03 14:55:19;;;;;;;6.10;5.30;;;25.70;1.00;;;;;;5920049;22;20392;-65
2021/06/03 14:57:46;;;;;;;6.30;5.70;;;25.70;1.00;;;;;;5922357;22;20831;-66
2021/06/03 15:00:28;;;;;;;5.90;5.40;;;25.70;99.90;;;;;;5928075;22;20937;-66
2021/06/03 15:02:55;;;;;;;7.00;6.30;;;25.60;1.00;;;;;;5930350;22;20833;-66
2021/06/03 15:05:21;;;;;;;11.10;5.70;;;25.40;27.70;;;;;;5920463;22;20378;-66
2021/06/03 15:07:48;;;;;;;5.97;5.47;;;25.60;42.30;;;;;;5922133;22;20381;-66
2021/06/03 15:10:17;;;;;;;5.77;5.27;;;25.70;21.00;;;;;;5909969;22;21171;-67
2021/06/03 15:12:44;;;;;;;6.23;5.73;;;25.60;31.20;;;;;;5917683;22;20393;-66
2021/06/03 15:15:12;;;;;;;6.60;5.90;;;25.70;13.60;;;;;;5950149;22;20381;-66
2021/06/03 15:17:38;;;;;;;6.23;5.73;;;25.70;1.00;;;;;;5911228;22;21170;-65
2021/06/03 15:20:08;;;;;;;6.23;5.70;;;25.80;27.00;;;;;;5922862;22;20848;-70
2021/06/03 15:22:34;;;;;;;5.90;5.30;;;26.00;1.00;;;;;;5915088;22;20166;-69
2021/06/03 15:25:00;;;;;;;6.80;6.20;;;26.20;1.00;;;;;;5902331;22;20389;-68
2021/06/03 15:27:26;;;;;;;6.17;5.43;;;26.10;1.00;;;;;;5964987;22;20540;-68
2021/06/03 15:29:53;;;;;;;5.53;5.03;;;25.90;1.00;;;;;;5965013;22;20442;-69
2021/06/03 15:32:19;;;;;;;7.00;6.30;;;25.60;1.00;;;;;;5970719;22;20432;-68
2021/06/03 15:34:45;;;;;;;6.40;5.90;;;25.50;8.70;;;;;;5972296;22;20772;-68
2021/06/03 15:37:11;;;;;;;6.90;6.07;;;25.40;19.40;;;;;;5976624;22;20825;-69
2021/06/03 15:39:38;;;;;;;6.23;5.67;;;25.50;23.80;;;;;;5955730;22;20901;-68
2021/06/03 15:42:05;;;;;;;6.40;5.80;;;25.60;1.40;;;;;;5974030;22;20726;-69
2021/06/03 15:44:31;;;;;;;6.90;6.20;;;25.40;85.00;;;;;;5934800;22;20885;-66
2021/06/03 15:47:02;;;;;;;6.10;5.60;;;25.60;35.90;;;;;;5931883;22;20392;-66
2021/06/03 15:49:30;;;;;;;7.60;6.57;;;25.30;99.10;;;;;;5932250;22;20567;-65
2021/06/03 15:52:07;;;;;;;8.20;6.07;;;25.70;97.00;;;;;;5928657;22;20757;-66
2021/06/03 15:54:37;;;;;;;6.63;6.03;;;25.60;93.00;;;;;;5918035;22;20455;-65
2021/06/03 15:57:05;;;;;;;6.20;5.70;;;25.50;99.90;;;;;;5926640;22;20400;-69
2021/06/03 15:59:33;;;;;;;8.83;6.10;;;25.60;99.90;;;;;;5962794;22;20832;-67
2021/06/03 16:02:00;;;;;;;8.53;6.10;;;25.60;99.90;;;;;;5923517;22;20940;-68
2021/06/03 16:04:26;;;;;;;6.30;5.43;;;25.50;99.90;;;;;;5963517;22;21318;-68
2021/06/03 16:06:52;;;;;;;7.23;6.63;;;25.60;99.90;;;;;;5929451;22;20389;-69
2021/06/03 16:09:17;;;;;;;7.50;6.50;;;25.60;99.90;;;;;;5936123;22;20455;-67
2021/06/03 16:11:44;;;;;;;6.70;6.10;;;25.90;99.80;;;;;;5972669;22;20151;-69
2021/06/03 16:14:10;;;;;;;7.80;6.73;;;25.60;54.10;;;;;;5927348;22;20155;-68
2021/06/03 16:16:35;;;;;;;6.83;6.20;;;25.60;99.90;;;;;;5919260;22;21193;-68
2021/06/03 16:19:01;;;;;;;6.97;5.60;;;25.40;99.90;;;;;;5922469;22;20429;-70
2021/06/03 16:21:27;;;;;;;6.93;5.80;;;25.40;99.90;;;;;;5943798;22;21028;-66
2021/06/03 16:23:53;;;;;;;7.17;5.30;;;25.20;99.90;;;;;;5919202;22;20410;-68
2021/06/03 16:26:18;;;;;;;6.10;5.40;;;25.30;99.90;;;;;;5952897;22;20387;-67
2021/06/03 16:28:44;;;;;;;8.10;5.53;;;25.70;99.90;;;;;;5914575;22;20170;-67
2021/06/03 16:31:10;;;;;;;7.80;6.13;;;25.60;99.90;;;;;;5928765;22;20159;-66
2021/06/03 16:33:36;;;;;;;7.10;6.50;;;25.40;99.90;;;;;;5914899;22;20163;-66
2021/06/03 16:36:05;;;;;;;7.30;6.60;;;25.30;99.90;;;;;;5893320;22;20485;-67
2021/06/03 16:38:31;;;;;;;7.53;6.30;;;25.10;99.90;;;;;;5899752;22;20410;-68
2021/06/03 16:40:57;;;;;;;8.00;7.10;;;25.10;99.90;;;;;;5921646;22;20397;-67
2021/06/03 16:43:23;;;;;;;5.77;5.00;;;25.10;99.90;;;;;;5920185;22;20425;-66
2021/06/03 16:45:50;;;;;;;5.70;4.47;;;24.10;1.00;;;;;;5934108;22;20147;-65
2021/06/03 16:48:18;;;;;;;7.43;4.40;;;23.40;1.00;;;;;;5916947;22;21315;-66
2021/06/03 16:50:45;;;;;;;4.20;3.47;;;22.80;1.00;;;;;;5947797;22;20489;-67
2021/06/03 16:53:11;;;;;;;4.53;3.00;;;22.20;99.90;;;;;;5962103;22;20903;-68
2021/06/03 16:55:38;;;;;;;3.17;2.80;;;21.70;27.80;;;;;;5993957;22;20951;-68
2021/06/03 16:58:06;;;;;;;4.60;3.33;;;21.40;99.90;;;;;;5988633;22;20522;-69
2021/06/03 17:00:36;;;;;;;4.00;3.27;;;21.00;1.00;;;;;;5940370;22;20985;-68
2021/06/03 17:03:04;;;;;;;7.77;5.00;;;20.60;1.00;;;;;;5942604;22;20408;-68
2021/06/03 17:05:30;;;;;;;7.67;6.00;;;20.60;99.90;;;;;;5966663;22;20849;-68
2021/06/03 17:07:57;;;;;;;9.60;4.60;;;20.30;99.90;;;;;;5966867;22;20760;-66
2021/06/03 17:10:23;;;;;;;7.43;6.67;;;20.20;99.90;;;;;;5945485;22;20878;-67
2021/06/03 17:12:49;;;;;;;5.37;4.87;;;20.00;99.90;;;;;;5996960;22;20774;-66
2021/06/03 17:15:17;;;;;;;6.03;5.43;;;19.90;99.90;;;;;;5954586;22;20755;-68
2021/06/03 17:17:44;;;;;;;5.70;5.10;;;19.90;99.90;;;;;;5945618;22;20827;-71
2021/06/03 17:20:16;;;;;;;4.50;3.90;;;19.90;99.90;;;;;;6042738;22;21196;-69
2021/06/03 17:22:43;;;;;;;6.00;4.23;;;19.80;99.90;;;;;;6051961;22;20596;-70
2021/06/03 17:25:12;;;;;;;4.60;3.97;;;19.80;99.90;;;;;;6036980;22;20899;-68
2021/06/03 17:27:46;;;;;;;6.13;4.20;;;19.70;99.90;;;;;;6038065;22;20691;-65
2021/06/03 17:30:19;;;;;;;3.57;3.20;;;19.80;99.90;;;;;;6034773;22;20627;-63
2021/06/03 17:32:49;;;;;;;5.20;4.40;;;19.60;99.90;;;;;;5955111;22;20413;-68
2021/06/03 17:35:16;;;;;;;5.10;3.80;;;19.50;99.90;;;;;;5930750;22;20389;-67
2021/06/03 17:37:41;;;;;;;4.50;4.10;;;19.30;99.90;;;;;;5942187;22;20389;-66
2021/06/03 17:40:09;;;;;;;6.30;4.90;;;19.30;99.90;;;;;;5938633;22;20428;-70
2021/06/03 17:42:36;;;;;;;6.97;3.57;;;19.20;99.90;;;;;;5947211;22;20732;-70
2021/06/03 17:45:05;;;;;;;5.20;4.67;;;19.00;99.90;;;;;;5968761;22;20859;-70
2021/06/03 17:47:31;;;;;;;5.93;5.37;;;18.90;99.90;;;;;;5964476;22;21048;-70
2021/06/03 17:49:57;;;;;;;4.73;4.23;;;19.10;99.90;;;;;;5919938;22;20843;-68
2021/06/03 17:52:23;;;;;;;4.60;4.20;;;19.00;99.90;;;;;;5926117;22;20770;-68
2021/06/03 17:54:48;;;;;;;5.50;5.00;;;19.00;99.90;;;;;;5978804;22;20579;-69
2021/06/03 17:57:14;;;;;;;5.87;5.23;;;19.00;99.90;;;;;;5933459;22;20162;-71
2021/06/03 17:59:40;;;;;;;5.03;4.57;;;18.80;99.90;;;;;;5945490;22;20464;-67
2021/06/03 18:02:06;;;;;;;8.43;5.30;;;18.70;99.90;;;;;;5935723;22;20885;-67
2021/06/03 18:04:33;;;;;;;6.87;5.73;;;18.70;99.90;;;;;;5927566;22;20785;-69
2021/06/03 18:06:58;;;;;;;7.57;6.80;;;18.80;99.90;;;;;;5936833;22;20421;-67
2021/06/03 18:09:24;;;;;;;9.33;5.60;;;19.00;99.90;;;;;;5976451;22;20424;-69
2021/06/03 18:11:50;;;;;;;7.77;5.73;;;19.10;99.90;;;;;;5948679;22;20576;-69
2021/06/03 18:14:16;;;;;;;6.10;5.57;;;18.90;99.90;;;;;;5952679;22;20539;-68
2021/06/03 18:16:43;;;;;;;5.93;5.33;;;18.50;99.90;;;;;;5945867;22;20200;-68
2021/06/03 18:19:09;;;;;;;9.23;6.57;;;18.50;99.90;;;;;;5928666;22;20768;-66
2021/06/03 18:21:35;;;;;;;11.40;6.00;;;18.50;99.90;;;;;;5943796;22;20393;-66
2021/06/03 18:24:01;;;;;;;6.87;6.20;;;18.30;99.90;;;;;;5978338;22;20431;-67
2021/06/03 18:26:26;;;;;;;8.00;6.70;;;18.20;99.90;;;;;;5939717;22;20581;-66
2021/06/03 18:28:52;;;;;;;7.60;5.93;;;18.10;99.90;;;;;;5967307;22;20866;-68
2021/06/03 18:31:18;;;;;;;6.50;6.00;;;18.00;99.90;;;;;;5937214;22;20178;-67
2021/06/03 18:33:43;;;;;;;6.40;5.47;;;18.10;99.90;;;;;;5960593;22;20178;-69
2021/06/03 18:36:09;;;;;;;6.10;5.50;;;18.20;99.90;;;;;;5932171;22;20404;-70
2021/06/03 18:38:35;;;;;;;5.90;4.90;;;18.20;99.90;;;;;;5958265;22;20387;-68
2021/06/03 18:41:01;;;;;;;6.90;6.27;;;18.30;99.90;;;;;;5983513;22;20934;-69
2021/06/03 18:43:27;;;;;;;7.00;6.30;;;18.50;99.90;;;;;;5935996;22;20899;-68
2021/06/03 18:45:52;;;;;;;7.30;6.60;;;18.90;99.90;;;;;;5933321;22;20159;-67
2021/06/03 18:48:19;;;;;;;9.30;5.97;;;19.20;99.90;;;;;;5916993;22;20207;-67
2021/06/03 18:50:45;;;;;;;5.90;5.30;;;19.10;99.90;;;;;;5974524;22;20181;-66
2021/06/03 18:53:17;;;;;;;6.37;5.83;;;18.70;99.90;;;;;;5985440;22;20420;-69
2021/06/03 18:55:44;;;;;;;9.90;8.63;;;18.70;99.90;;;;;;5945811;22;20154;-67
2021/06/03 18:58:10;;;;;;;6.73;6.03;;;18.90;99.90;;;;;;5942610;22;21026;-67
2021/06/03 19:00:36;;;;;;;9.10;7.07;;;19.20;99.90;;;;;;5944171;22;20815;-70
2021/06/03 19:03:05;;;;;;;6.13;5.53;;;19.30;99.90;;;;;;5961238;22;20961;-69
2021/06/03 19:05:32;;;;;;;8.53;7.63;;;19.40;99.90;;;;;;5954985;22;20872;-67
2021/06/03 19:07:57;;;;;;;6.93;6.23;;;19.60;99.90;;;;;;5936066;22;20393;-68
2021/06/03 19:10:45;;;;;;;7.50;6.80;;;19.60;99.90;;;;;;5922143;22;20447;-69
2021/06/03 19:13:13;;;;;;;7.67;6.97;;;19.60;99.90;;;;;;5961457;22;20586;-68
2021/06/03 19:15:41;;;;;;;8.10;7.37;;;19.70;99.90;;;;;;5961234;22;20893;-68
2021/06/03 19:18:08;;;;;;;8.37;7.57;;;19.40;99.90;;;;;;5945626;22;20946;-68
2021/06/03 19:20:35;;;;;;;6.70;6.10;;;19.60;99.90;;;;;;5937686;22;20416;-63
2021/06/03 19:23:01;;;;;;;6.60;6.03;;;19.40;99.90;;;;;;5950792;22;20856;-63
2021/06/03 19:25:27;;;;;;;7.30;6.60;;;19.50;99.90;;;;;;5950171;22;20845;-63
2021/06/03 19:27:56;;;;;;;7.47;6.20;;;19.50;99.90;;;;;;5989555;22;20544;-65
2021/06/03 19:30:25;;;;;;;9.83;7.30;;;19.40;99.90;;;;;;5935307;22;21360;-65
2021/06/03 19:32:51;;;;;;;7.83;7.03;;;19.20;99.90;;;;;;5946080;22;20385;-66
2021/06/03 19:35:21;;;;;;;7.40;6.73;;;19.10;99.90;;;;;;5954025;22;20989;-63
2021/06/03 19:37:48;;;;;;;8.33;7.53;;;19.30;99.90;;;;;;5945186;22;20434;-63
2021/06/03 19:40:14;;;;;;;8.13;7.40;;;19.40;99.90;;;;;;5982054;22;20786;-63
2021/06/03 19:42:41;;;;;;;8.40;7.70;;;19.40;99.90;;;;;;5951270;22;20651;-64
2021/06/03 19:45:08;;;;;;;8.37;7.57;;;19.40;99.90;;;;;;5992173;22;20923;-64
2021/06/03 19:47:35;;;;;;;7.57;6.97;;;19.20;99.90;;;;;;5946516;22;20911;-63
2021/06/03 19:50:00;;;;;;;9.50;8.60;;;19.40;99.90;;;;;;5983442;22;20812;-64
2021/06/03 19:52:27;;;;;;;9.03;7.67;;;19.40;99.90;;;;;;5954506;22;20797;-65
2021/06/03 19:54:52;;;;;;;8.23;7.43;;;19.60;99.90;;;;;;5948288;22;20904;-64
2021/06/03 19:57:19;;;;;;;9.40;8.50;;;19.40;99.90;;;;;;5990583;22;20782;-63
2021/06/03 19:59:45;;;;;;;9.03;8.20;;;19.60;99.90;;;;;;5944814;22;20575;-64
2021/06/03 20:02:11;;;;;;;8.47;7.50;;;19.60;99.90;;;;;;5943556;22;20392;-64
2021/06/03 20:04:36;;;;;;;8.97;8.17;;;19.70;99.90;;;;;;5949537;22;20738;-64
2021/06/03 20:07:02;;;;;;;8.67;7.87;;;19.60;99.90;;;;;;5942652;22;20266;-64
2021/06/03 20:09:27;;;;;;;8.80;7.97;;;19.50;99.90;;;;;;5963575;22;20192;-64
2021/06/03 20:11:53;;;;;;;9.53;8.60;;;19.70;99.90;;;;;;5943723;22;20242;-64
2021/06/03 20:14:19;;;;;;;9.40;8.50;;;19.90;99.90;;;;;;5938106;22;20534;-64
2021/06/03 20:16:45;;;;;;;9.17;8.27;;;19.90;99.90;;;;;;5931133;22;20862;-64
2021/06/03 20:19:10;;;;;;;10.77;9.77;;;20.00;99.90;;;;;;5944771;22;20147;-64
2021/06/03 20:21:36;;;;;;;12.23;9.67;;;20.00;99.90;;;;;;5885271;22;20448;-64
2021/06/03 20:24:02;;;;;;;10.77;9.70;;;20.00;99.90;;;;;;5945055;22;20519;-64
2021/06/03 20:26:28;;;;;;;11.53;10.30;;;20.00;99.90;;;;;;5926134;22;20487;-64
2021/06/03 20:28:53;;;;;;;11.10;10.10;;;20.10;99.90;;;;;;5949357;22;20978;-64
2021/06/03 20:31:19;;;;;;;11.30;10.20;;;20.10;99.90;;;;;;5962841;22;20147;-64
2021/06/03 20:33:45;;;;;;;11.97;10.77;;;20.10;99.90;;;;;;5953794;22;20231;-64
2021/06/03 20:36:10;;;;;;;13.93;12.63;;;20.00;99.90;;;;;;5917681;22;20173;-64
2021/06/03 20:38:37;;;;;;;14.00;12.30;;;19.80;99.90;;;;;;5936912;22;21262;-64
2021/06/03 20:41:03;;;;;;;13.10;11.80;;;19.80;99.90;;;;;;5952736;22;20541;-64
2021/06/03 20:43:29;;;;;;;12.80;11.50;;;19.80;99.90;;;;;;5913337;22;20962;-64
2021/06/03 20:45:56;;;;;;;13.57;12.17;;;19.80;99.90;;;;;;5900952;22;20818;-64
2021/06/03 20:48:22;;;;;;;14.10;12.80;;;19.70;99.90;;;;;;5909505;22;20389;-64
2021/06/03 20:50:51;;;;;;;13.97;12.60;;;19.70;99.90;;;;;;5911935;22;20448;-64
2021/06/03 20:53:22;;;;;;;13.30;12.00;;;19.80;99.90;;;;;;5913271;22;20575;-64
2021/06/03 20:55:50;;;;;;;14.83;13.03;;;19.80;99.90;;;;;;5917389;22;20400;-64
2021/06/03 20:58:19;;;;;;;13.80;12.50;;;19.90;99.90;;;;;;5914432;22;20416;-64
2021/06/03 21:00:46;;;;;;;13.47;12.07;;;19.70;99.90;;;;;;5945048;22;20921;-64
2021/06/03 21:03:13;;;;;;;14.07;12.63;;;19.70;99.90;;;;;;5925457;22;20476;-64
2021/06/03 21:05:39;;;;;;;13.17;11.23;;;19.70;99.90;;;;;;5914254;22;20424;-64
2021/06/03 21:08:07;;;;;;;13.33;12.13;;;19.70;99.90;;;;;;5943381;22;20892;-65
2021/06/03 21:10:43;;;;;;;13.40;12.00;;;19.80;99.90;;;;;;5904327;22;20432;-64
2021/06/03 21:13:09;;;;;;;13.97;12.50;;;19.80;99.90;;;;;;5906738;22;20400;-64
2021/06/03 21:15:36;;;;;;;12.80;11.60;;;19.80;99.90;;;;;;5901897;22;20389;-64
2021/06/03 21:18:03;;;;;;;12.50;11.30;;;19.80;99.90;;;;;;5914130;22;20158;-64
2021/06/03 21:20:30;;;;;;;15.03;13.53;;;19.70;99.90;;;;;;5905323;22;20397;-64
2021/06/03 21:22:55;;;;;;;13.60;12.37;;;19.70;99.90;;;;;;5912757;22;20389;-64
2021/06/03 21:25:23;;;;;;;14.60;13.20;;;19.80;99.90;;;;;;5930095;22;20911;-64
2021/06/03 21:27:50;;;;;;;14.70;13.03;;;19.90;99.90;;;;;;5933710;22;20611;-64
2021/06/03 21:30:18;;;;;;;13.90;12.50;;;19.90;99.90;;;;;;5935708;22;20736;-64
2021/06/03 21:32:44;;;;;;;14.60;13.10;;;20.00;99.90;;;;;;5928165;22;20835;-64
2021/06/03 21:35:13;;;;;;;16.17;14.00;;;20.00;99.90;;;;;;5978638;22;20886;-64
2021/06/03 21:37:39;;;;;;;14.80;13.30;;;20.00;99.90;;;;;;5967017;22;20834;-64
2021/06/03 21:40:07;;;;;;;15.47;14.00;;;19.80;99.90;;;;;;5978388;22;21017;-64
2021/06/03 21:42:34;;;;;;;14.67;13.27;;;19.90;99.90;;;;;;5968566;22;20821;-64
2021/06/03 21:44:59;;;;;;;15.83;14.33;;;19.90;99.90;;;;;;5938881;22;20947;-65
2021/06/03 21:47:27;;;;;;;17.30;15.70;;;20.00;99.90;;;;;;5929468;22;21210;-64
2021/06/03 21:49:53;;;;;;;17.10;15.33;;;20.10;99.90;;;;;;5929038;22;21055;-65
2021/06/03 21:52:20;;;;;;;16.00;14.53;;;20.10;99.90;;;;;;5981743;22;20767;-65
2021/06/03 21:54:45;;;;;;;15.03;13.53;;;20.00;99.90;;;;;;5938230;22;20838;-65
2021/06/03 21:57:14;;;;;;;16.80;14.93;;;19.90;99.90;;;;;;5934993;22;20881;-64
2021/06/03 21:59:39;;;;;;;17.47;15.77;;;19.70;99.90;;;;;;5969874;22;20629;-65
2021/06/03 22:02:05;;;;;;;16.43;14.93;;;19.60;99.90;;;;;;5974361;22;20381;-64
2021/06/03 22:04:30;;;;;;;16.80;15.10;;;19.60;99.90;;;;;;5936779;22;20163;-64
2021/06/03 22:06:56;;;;;;;16.23;14.73;;;19.60;99.90;;;;;;5949204;22;20167;-64
2021/06/03 22:09:22;;;;;;;15.77;14.17;;;19.70;99.90;;;;;;5952806;22;20744;-65
2021/06/03 22:11:48;;;;;;;14.93;13.53;;;19.80;99.90;;;;;;5952985;22;20162;-65
2021/06/03 22:14:13;;;;;;;18.20;15.00;;;19.80;99.90;;;;;;5927743;22;20154;-64
2021/06/03 22:16:41;;;;;;;15.50;14.03;;;19.90;99.90;;;;;;5938389;22;20181;-65
2021/06/03 22:19:07;;;;;;;15.37;14.07;;;19.80;99.90;;;;;;5922425;22;20558;-65
2021/06/03 22:21:34;;;;;;;14.20;12.80;;;19.80;99.90;;;;;;5924951;22;20832;-65
2021/06/03 22:24:02;;;;;;;16.33;14.73;;;19.90;99.90;;;;;;5950773;22;20415;-67
2021/06/03 22:26:28;;;;;;;15.13;13.60;;;19.90;99.90;;;;;;5956568;22;20836;-68
2021/06/03 22:28:54;;;;;;;15.43;14.00;;;20.10;99.90;;;;;;5984270;22;22907;-70
2021/06/03 22:31:20;;;;;;;15.73;14.07;;;20.10;99.90;;;;;;5952057;22;21012;-68
2021/06/03 22:33:46;;;;;;;16.60;15.10;;;20.10;99.90;;;;;;5952353;22;20936;-66
2021/06/03 22:36:11;;;;;;;16.03;14.43;;;20.10;99.90;;;;;;5979185;22;20908;-67
2021/06/03 22:38:38;;;;;;;15.50;14.10;;;20.20;99.90;;;;;;5941136;22;20551;-66
2021/06/03 22:41:07;;;;;;;15.93;14.47;;;20.30;99.90;;;;;;5977516;22;20540;-66
2021/06/03 22:43:33;;;;;;;15.97;14.37;;;20.30;99.90;;;;;;5950714;22;20411;-66
2021/06/03 22:45:59;;;;;;;16.50;14.90;;;20.20;99.90;;;;;;5953588;22;20381;-66
2021/06/03 22:48:29;;;;;;;15.50;14.00;;;20.20;99.90;;;;;;5927324;22;21219;-66
2021/06/03 22:51:02;;;;;;;15.87;14.37;;;20.10;99.90;;;;;;5921467;22;20187;-66
2021/06/03 22:53:31;;;;;;;14.03;12.73;;;19.90;99.90;;;;;;5966097;22;20803;-65
2021/06/03 22:55:58;;;;;;;15.67;14.27;;;19.80;99.90;;;;;;5926344;22;20835;-66
2021/06/03 22:58:25;;;;;;;14.20;12.90;;;19.90;99.90;;;;;;5928692;22;20396;-66
2021/06/03 23:00:55;;;;;;;14.97;13.47;;;19.90;99.90;;;;;;5975506;22;20811;-66
2021/06/03 23:03:22;;;;;;;15.20;13.70;;;19.90;99.90;;;;;;5947728;22;21199;-66
2021/06/03 23:05:50;;;;;;;15.83;14.43;;;20.00;99.90;;;;;;5980441;22;20710;-66
2021/06/03 23:08:22;;;;;;;14.67;13.17;;;20.00;99.90;;;;;;5940256;22;20393;-66
2021/06/03 23:10:49;;;;;;;15.57;13.93;;;20.10;99.90;;;;;;5980822;22;20766;-66
2021/06/03 23:13:19;;;;;;;14.73;13.33;;;20.10;99.90;;;;;;5997358;22;20595;-66
2021/06/03 23:15:46;;;;;;;14.07;12.77;;;20.10;99.90;;;;;;5965176;22;20963;-65
2021/06/03 23:18:11;;;;;;;15.30;13.80;;;20.00;99.90;;;;;;5969809;22;21221;-66
2021/06/03 23:20:37;;;;;;;16.73;14.77;;;20.00;99.90;;;;;;5955555;22;20867;-66
2021/06/03 23:23:03;;;;;;;16.73;15.00;;;20.00;99.90;;;;;;5926031;22;20820;-68
2021/06/03 23:25:30;;;;;;;19.00;14.47;;;20.20;99.90;;;;;;5959496;22;20173;-68
2021/06/03 23:27:56;;;;;;;16.97;14.30;;;20.00;99.90;;;;;;5940538;22;21280;-67
2021/06/03 23:30:22;;;;;;;18.43;16.57;;;20.10;99.90;;;;;;5928889;22;20862;-68
2021/06/03 23:32:48;;;;;;;16.10;14.70;;;20.20;99.90;;;;;;5976746;22;20543;-66
2021/06/03 23:35:14;;;;;;;16.50;14.90;;;20.10;99.90;;;;;;5945914;22;20857;-66
2021/06/03 23:37:40;;;;;;;15.83;14.20;;;20.20;99.90;;;;;;5978324;22;20639;-67
2021/06/03 23:40:07;;;;;;;17.43;14.23;;;20.20;99.90;;;;;;5977370;22;20230;-67
2021/06/03 23:42:33;;;;;;;17.00;15.30;;;20.20;99.90;;;;;;5983030;22;21140;-66
2021/06/03 23:44:59;;;;;;;17.27;15.47;;;20.10;99.90;;;;;;5942141;22;21176;-68
2021/06/03 23:47:24;;;;;;;16.10;14.40;;;20.20;99.90;;;;;;5982753;22;20598;-68
2021/06/03 23:49:51;;;;;;;17.27;15.47;;;20.00;99.90;;;;;;5932115;22;20939;-68
2021/06/03 23:52:18;;;;;;;17.47;15.87;;;20.00;99.90;;;;;;5938676;22;20404;-68
2021/06/03 23:54:43;;;;;;;16.73;15.00;;;20.10;99.90;;;;;;5935715;22;20918;-69
2021/06/03 23:57:09;;;;;;;16.17;14.67;;;20.10;99.90;;;;;;5966974;22;20921;-68
2021/06/03 23:59:36;;;;;;;16.50;14.90;;;20.10;99.90;;;;;;5970087;22;20618;-67
